Sapporo, Japan

6:22 PM JST on August 22, 2014 (GMT +0900)
New Chitose | Change Station
CLOSE
Current Station
Airport
Location: Chitose AB,
Elevation: 98 ft
Nearby Weather Stations

Elev 98 ft 42.77 °N, 141.69 °E | Updated 22 minutes ago

Light Rain Showers
Light Showers Rain
66 °F
Feels Like 66 °F
N
9
Wind Variable Wind from SSE

Today
High -- | Low -- °F
--% Chance of Precip.
Yesterday
High -- | Low -- °F
Precip. -- in
4:47 AM 6:27 PM
Waning Crescent, 9% visible
Pressure 29.89 in
Visibility 4.3 miles
Clouds Few 300 ft
Mostly Cloudy 500 ft
Mostly Cloudy 1000 ft
Dew Point 64 °F
Humidity 94%
Rainfall 0.00 in
Snow Depth Not available.
UV 0 out of 12
Pollen Not available.
Air Quality Not available.
Flu Activity Not available.
METAR RJCC 220900Z 15008KT 7000 -SHRA FEW003 BKN005 BKN010 19/18 Q1012 RMK 1ST003 5ST005 7ST010 A2989

More Conditions Fewer Conditions

Pressure 29.89 in
Visibility 4.3 miles
Clouds Few 300 ft
Mostly Cloudy 500 ft
Mostly Cloudy 1000 ft
Dew Point 64 °F
Humidity 94%
Rainfall 0.00 in
Snow Depth Not available.
UV 0 out of 12
Pollen Not available.
Air Quality Not available.
Flu Activity Not available.
METAR RJCC 220900Z 15008KT 7000 -SHRA FEW003 BKN005 BKN010 19/18 Q1012 RMK 1ST003 5ST005 7ST010 A2989

More Conditions Fewer Conditions

10-Day Weather Forecast

Almanac

Astronomy

Aug. 22, 2014 Rise Set
Actual Time 4:47 AM JST 6:27 PM JST
Civil Twilight 4:17 AM JST 6:57 PM JST
Nautical Twilight 3:40 AM JST 7:33 PM JST
Astronomical Twilight 3:01 AM JST 8:12 PM JST
Moon 1:33 AM JST 4:12 PM JST
Length of Visible Light 14h 40m
Length of Day
13h 39m
Tomorrow will be 2m 42s shorter.
Waning Crescent, 9% of the Moon is Illuminated
Today
Waning Crescent
Aug 25
New
Sep 2
First Quarter
Sep 8
Full
Sep 15
Last Quarter

Yesterday's Extremes

Country Highs Country Lows

Community

WunderPhotos

Upload Photos

1,746,146 photos uploaded!

Nearby

Snow Depth

Not available.

Earthquake Activity

City Distance Mag. Time & Date
No recent earthquake activity has been reported nearby.
Minimum magnitude displayed is 2.5.

Coastal Water Temperatures

Place Temperature
No Stations Reporting

Nearby Weather Stations